HBD weather

Pemex Southern Region Administrative Technical Center Helipad
Villahermosa, Tabasco, Mexico

Public forecast

Using degrees Celsius for public forecast. Weather courtesy of forecast.io.

METAR (pilot weather report)

Closest report is Carlos Rovirosa Pérez International Airport, 7.9 nm (14.6 km) E. Retrieved 2019/06/19 02:44 UTC (1 hour ago):

MMVA 190244Z 00000KT 7SM SCT060 28/26 A2986 RMK SLP109 52014 904 8/020

TAF (pilot weather forecast)

Forecast is more than 6 hours old.

Closest forecast is Carlos Rovirosa Pérez International Airport, 7.9 nm (14.6 km) E. Retrieved 2019/06/18 18:14 UTC (10 hours ago):

TAF MMVA 181707Z 1818/1918 06010KT P6SM SCT015 BKN250 TEMPO 1823/1903 5SM VC TSRA BKN015CB FM190600 09010KT 5SM HZ SCT010 FM191500 12012KT P6SM SCT020